This is the latest recevied weather packets stored in our database for station/object K5NWZ. If no packets are shown the sender has not sent any weather packets the latest 10 day(s).
| Time | Temp. | Humidity | Pressure | Rain* | Wind** | Luminosity | Snow |
|---|---|---|---|---|---|---|---|
| 1787776623 | 27.78° C | 43% | 1033.2 hPa | 0 mm | - | 169 W/m² | - |
| 1787776323 | 27.78° C | 43% | 1033.4 hPa | 0 mm | - | 348 W/m² | - |
| 1787776021 | 27.78° C | 42% | 1033.7 hPa | 0 mm | - | 263 W/m² | - |
| 1787775716 | 27.78° C | 42% | 1033.7 hPa | 0 mm | - | 479 W/m² | - |
| 1787775414 | 28.33° C | 41% | 1033.8 hPa | 0 mm | - | 721 W/m² | - |
| 1787775108 | 27.78° C | 44% | 1033.8 hPa | 0 mm | - | 525 W/m² | - |
| 1787774808 | 27.78° C | 44% | 1033.9 hPa | 0 mm | - | 486 W/m² | - |
| 1787774507 | 27.78° C | 44% | 1033.8 hPa | 0 mm | - | 825 W/m² | - |
| 1787774207 | 27.22° C | 45% | 1034 hPa | 0 mm | - | 225 W/m² | - |
| 1787773905 | 27.78° C | 44% | 1034 hPa | 0 mm | - | 683 W/m² | - |
| 1787773604 | 28.33° C | 44% | 1034 hPa | 0 mm | - | 442 W/m² | - |
| 1787773301 | 27.78° C | 44% | 1034.4 hPa | 0 mm | - | 784 W/m² | - |
| 1787772995 | 27.22° C | 45% | 1034.4 hPa | 0 mm | - | 881 W/m² | - |
| 1787772691 | 26.67° C | 45% | 1034.3 hPa | 0 mm | - | 803 W/m² | - |
| 1787772389 | 26.67° C | 47% | 1034.5 hPa | 0 mm | - | 172 W/m² | - |
| 1787772084 | 27.22° C | 47% | 1034.5 hPa | 0 mm | - | 138 W/m² | - |
| 1787771778 | 26.67° C | 47% | 1034.4 hPa | 0 mm | - | 197 W/m² | - |
| 1787771477 | 27.78° C | 47% | 1034.4 hPa | 0 mm | - | 222 W/m² | - |
| 1787771176 | 27.22° C | 45% | 1034.3 hPa | 0 mm | - | 749 W/m² | - |
| 1787770872 | 27.22° C | 47% | 1034.4 hPa | 0 mm | - | 758 W/m² | - |
| 1787770570 | 26.67° C | 46% | 1034.4 hPa | 0 mm | - | 776 W/m² | - |
| 1787770270 | 26.67° C | 47% | 1034.7 hPa | 0 mm | - | 750 W/m² | - |
| 1787769968 | 26.67° C | 47% | 1034.7 hPa | 0 mm | - | 719 W/m² | - |
| 1787769664 | 27.22° C | 47% | 1034.6 hPa | 0 mm | - | 704 W/m² | - |
| 1787769362 | 26.67° C | 48% | 1034.8 hPa | 0 mm | - | 704 W/m² | - |
* Rain latest hour (hover to see other rain measurements)
** Current wind speed in m/s (hover to see current wind gust speed)